Time;durP1;ratioP1;P1;durP2;ratioP2;P2;SDS_P1;SDS_P2;PMS_P1;PMS_P2;Temp;Humidity;BMP_temperature;BMP_pressure;BME280_temperature;BME280_humidity;BME280_pressure;Samples;Min_cycle;Max_cycle;Signal;HPM_P1;HPM_P2
2023/08/06 00:02:20;;;;;;;6.78;3.75;;;;;;;;;;5024276;28;20628;-63
2023/08/06 00:04:46;;;;;;;7.10;3.95;;;;;;;;;;5029341;28;20235;-62
2023/08/06 00:07:13;;;;;;;3.45;3.20;;;;;;;;;;5029347;28;20685;-63
2023/08/06 00:09:39;;;;;;;4.32;3.22;;;;;;;;;;5029965;28;20645;-63
2023/08/06 00:12:06;;;;;;;3.85;3.45;;;;;;;;;;5029294;28;20215;-63
2023/08/06 00:14:32;;;;;;;3.72;3.42;;;;;;;;;;5018737;28;20207;-63
2023/08/06 00:16:59;;;;;;;7.30;3.65;;;;;;;;;;5029893;28;20253;-63
2023/08/06 00:19:27;;;;;;;3.40;3.10;;;;;;;;;;5030177;28;20199;-63
2023/08/06 00:21:53;;;;;;;3.53;3.13;;;;;;;;;;5033551;28;20207;-63
2023/08/06 00:24:19;;;;;;;3.95;2.90;;;;;;;;;;5033635;28;20259;-63
2023/08/06 00:26:46;;;;;;;4.32;3.28;;;;;;;;;;5033463;28;20208;-63
2023/08/06 00:29:12;;;;;;;4.88;3.50;;;;;;;;;;5034159;28;20277;-63
2023/08/06 00:31:39;;;;;;;4.07;3.42;;;;;;;;;;5033263;28;20261;-63
2023/08/06 00:34:05;;;;;;;3.28;3.08;;;;;;;;;;5034101;28;20204;-63
2023/08/06 00:36:33;;;;;;;4.15;2.90;;;;;;;;;;5032345;28;20204;-63
2023/08/06 00:38:59;;;;;;;5.03;3.17;;;;;;;;;;5033573;28;20743;-63
2023/08/06 00:41:26;;;;;;;4.68;3.42;;;;;;;;;;5032857;28;20597;-62
2023/08/06 00:43:52;;;;;;;3.35;3.15;;;;;;;;;;5033318;28;20207;-63
2023/08/06 00:46:19;;;;;;;3.72;3.08;;;;;;;;;;5032967;28;20677;-63
2023/08/06 00:48:46;;;;;;;2.85;2.65;;;;;;;;;;5033261;28;20301;-63
2023/08/06 00:51:12;;;;;;;4.70;2.70;;;;;;;;;;5032830;28;20639;-63
2023/08/06 00:53:40;;;;;;;3.35;3.08;;;;;;;;;;5032874;28;20282;-63
2023/08/06 00:56:07;;;;;;;3.55;3.35;;;;;;;;;;5032914;28;20243;-63
2023/08/06 00:58:34;;;;;;;3.30;3.10;;;;;;;;;;5033426;28;20626;-62
2023/08/06 01:01:01;;;;;;;3.42;2.92;;;;;;;;;;5033059;28;20208;-63
2023/08/06 01:03:27;;;;;;;3.50;3.20;;;;;;;;;;5033081;28;20289;-63
2023/08/06 01:05:54;;;;;;;3.85;3.30;;;;;;;;;;5032994;28;20200;-62
2023/08/06 01:08:29;;;;;;;2.83;2.65;;;;;;;;;;5032799;28;20617;-63
2023/08/06 01:11:01;;;;;;;3.85;3.55;;;;;;;;;;5032702;28;20692;-63
2023/08/06 01:13:32;;;;;;;3.33;3.13;;;;;;;;;;5032745;28;20767;-62
2023/08/06 01:16:00;;;;;;;3.45;3.15;;;;;;;;;;5032782;28;20210;-63
2023/08/06 01:18:26;;;;;;;3.88;3.30;;;;;;;;;;5032617;28;20294;-63
2023/08/06 01:20:54;;;;;;;3.47;3.28;;;;;;;;;;5032266;28;20207;-63
2023/08/06 01:23:21;;;;;;;6.03;3.75;;;;;;;;;;5032276;28;20207;-62
2023/08/06 01:25:51;;;;;;;3.90;3.38;;;;;;;;;;5032368;28;20735;-64
2023/08/06 01:28:23;;;;;;;3.92;3.63;;;;;;;;;;5031952;28;20219;-64
2023/08/06 01:30:50;;;;;;;3.88;3.55;;;;;;;;;;5031583;28;20646;-63
2023/08/06 01:33:20;;;;;;;3.78;3.47;;;;;;;;;;5031754;28;20238;-63
2023/08/06 01:35:47;;;;;;;3.38;3.08;;;;;;;;;;5032149;28;20235;-63
2023/08/06 01:38:17;;;;;;;5.75;3.58;;;;;;;;;;5026310;28;20212;-63
2023/08/06 01:40:43;;;;;;;4.05;3.75;;;;;;;;;;5032217;28;20685;-64
2023/08/06 01:43:10;;;;;;;3.75;3.55;;;;;;;;;;5032226;28;20215;-63
2023/08/06 01:45:36;;;;;;;3.55;3.33;;;;;;;;;;5027189;28;20204;-63
2023/08/06 01:48:03;;;;;;;4.22;3.88;;;;;;;;;;5028571;28;20232;-64
2023/08/06 01:50:30;;;;;;;3.90;3.55;;;;;;;;;;5034582;28;20215;-63
2023/08/06 01:52:56;;;;;;;3.53;3.22;;;;;;;;;;5032417;28;20667;-64
2023/08/06 01:55:24;;;;;;;4.78;3.25;;;;;;;;;;5032221;28;20227;-63
2023/08/06 01:57:59;;;;;;;2.72;2.63;;;;;;;;;;5031511;28;20236;-63
2023/08/06 02:00:27;;;;;;;3.28;2.95;;;;;;;;;;5032239;28;20284;-63
2023/08/06 02:02:54;;;;;;;6.07;3.63;;;;;;;;;;5031388;28;20205;-63
2023/08/06 02:05:20;;;;;;;3.33;3.15;;;;;;;;;;5031300;28;20267;-63
2023/08/06 02:07:47;;;;;;;3.45;3.25;;;;;;;;;;5031071;28;20262;-64
2023/08/06 02:10:13;;;;;;;11.35;2.83;;;;;;;;;;5031782;28;20265;-63
2023/08/06 02:12:41;;;;;;;3.58;3.30;;;;;;;;;;5032107;28;20204;-63
2023/08/06 02:15:07;;;;;;;4.05;3.70;;;;;;;;;;5025679;28;20204;-63
2023/08/06 02:17:34;;;;;;;6.88;4.78;;;;;;;;;;5030839;28;20215;-63
2023/08/06 02:20:00;;;;;;;3.70;3.40;;;;;;;;;;5031820;28;20204;-64
2023/08/06 02:22:27;;;;;;;4.07;3.78;;;;;;;;;;5031766;28;20630;-64
2023/08/06 02:24:53;;;;;;;4.00;3.75;;;;;;;;;;5031060;28;20708;-64
2023/08/06 02:27:20;;;;;;;8.48;4.20;;;;;;;;;;5028974;28;20277;-63
2023/08/06 02:29:48;;;;;;;8.13;4.75;;;;;;;;;;5030654;28;20290;-64
2023/08/06 02:32:14;;;;;;;10.70;4.43;;;;;;;;;;5031574;28;20196;-62
2023/08/06 02:34:40;;;;;;;9.02;5.22;;;;;;;;;;5031226;28;20689;-63
2023/08/06 02:37:07;;;;;;;8.05;5.55;;;;;;;;;;5031158;28;20262;-63
2023/08/06 02:39:35;;;;;;;7.13;4.72;;;;;;;;;;5031272;28;20291;-63
2023/08/06 02:42:01;;;;;;;4.30;4.00;;;;;;;;;;5030875;28;20211;-64
2023/08/06 02:44:29;;;;;;;5.25;4.78;;;;;;;24.55;100.00;145944.34;5031359;28;20231;-64
2023/08/06 02:46:57;;;;;;;4.68;4.25;;;;;;;;;;5030402;28;20666;-63
2023/08/06 02:49:23;;;;;;;7.72;4.43;;;;;;;;;;5030822;28;20250;-63
2023/08/06 02:51:50;;;;;;;4.38;3.97;;;;;;;;;;5030479;28;20705;-63
2023/08/06 02:54:16;;;;;;;4.50;4.15;;;;;;;;;;5031214;28;20572;-64
2023/08/06 02:56:44;;;;;;;3.90;3.60;;;;;;;;;;5030556;28;20239;-63
2023/08/06 02:59:10;;;;;;;5.07;4.40;;;;;;;;;;5030787;28;20285;-63
2023/08/06 03:01:37;;;;;;;4.65;4.25;;;;;;;;;;5020657;28;20289;-64
2023/08/06 03:04:04;;;;;;;5.38;3.38;;;;;;;;;;5032542;28;20241;-63
2023/08/06 03:06:31;;;;;;;5.60;3.92;;;;;;;;;;5031534;28;20644;-63
2023/08/06 03:08:57;;;;;;;3.92;3.63;;;;;;;;;;5031443;28;20622;-62
2023/08/06 03:11:24;;;;;;;3.47;3.28;;;;;;;;;;5031741;28;20207;-63
2023/08/06 03:13:50;;;;;;;3.92;3.50;;;;;;;;;;5031274;28;20214;-64
2023/08/06 03:16:17;;;;;;;3.72;3.53;;;;;;;;;;5031026;28;20633;-64
2023/08/06 03:18:43;;;;;;;6.55;4.32;;;;;;;;;;5030509;28;20246;-64
2023/08/06 03:21:11;;;;;;;4.45;4.00;;;;;;;;;;5031103;28;20207;-63
2023/08/06 03:23:38;;;;;;;5.78;3.65;;;;;;;;;;5030621;28;20223;-63
2023/08/06 03:26:04;;;;;;;4.63;4.15;;;;;;;;;;5031058;28;20199;-64
2023/08/06 03:28:31;;;;;;;3.58;3.38;;;;;;;;;;5030566;28;20400;-64
2023/08/06 03:31:01;;;;;;;4.22;3.85;;;;;;;;;;5031134;28;20196;-64
2023/08/06 03:33:27;;;;;;;4.28;3.97;;;;;;;;;;5030638;28;20295;-64
2023/08/06 03:35:54;;;;;;;4.18;3.78;;;;;;;;;;5030887;28;20284;-64
2023/08/06 03:38:22;;;;;;;4.43;4.15;;;;;;;;;;5032242;28;20738;-63
2023/08/06 03:40:49;;;;;;;4.25;3.95;;;;;;;;;;5031201;28;20269;-63
2023/08/06 03:43:15;;;;;;;4.25;3.85;;;;;;;;;;5030263;28;20199;-64
2023/08/06 03:45:42;;;;;;;4.43;4.13;;;;;;;;;;5030492;28;20235;-63
2023/08/06 03:48:08;;;;;;;4.35;4.05;;;;;;;;;;5029901;28;20203;-63
2023/08/06 03:50:34;;;;;;;3.47;3.28;;;;;;;;;;5030908;28;20285;-64
2023/08/06 03:53:01;;;;;;;4.18;3.80;;;;;;;;;;5030033;28;20219;-63
2023/08/06 03:55:29;;;;;;;4.43;4.03;;;;;;;;;;5029944;28;20223;-64
2023/08/06 03:57:55;;;;;;;3.53;3.22;;;;;;;;;;5029816;28;20295;-64
2023/08/06 04:00:22;;;;;;;3.53;3.25;;;;;;;;;;5030336;28;20207;-62
2023/08/06 04:02:49;;;;;;;3.38;3.10;;;;;;;;;;5029860;28;20199;-62
2023/08/06 04:05:15;;;;;;;3.60;3.38;;;;;;;;;;5029932;28;20744;-62
2023/08/06 04:07:41;;;;;;;3.47;3.17;;;;;;;;;;5030048;28;20257;-62
2023/08/06 04:10:08;;;;;;;4.00;3.60;;;;;;;;;;5030567;28;20259;-64
2023/08/06 04:12:38;;;;;;;5.57;3.70;;;;;;;;;;5029507;28;20239;-62
2023/08/06 04:15:07;;;;;;;3.60;3.40;;;;;;;;;;5030377;28;20265;-63
2023/08/06 04:17:33;;;;;;;3.88;3.50;;;;;;;;;;5029621;28;20211;-63
2023/08/06 04:20:00;;;;;;;3.58;3.38;;;;;;;;;;5030077;28;20750;-62
2023/08/06 04:22:26;;;;;;;4.55;4.15;;;;;;;;;;5029319;28;20235;-62
2023/08/06 04:24:53;;;;;;;6.47;4.25;;;;;;;;;;5029948;28;20211;-62
2023/08/06 04:27:20;;;;;;;3.95;3.75;;;;;;;;;;5029696;28;20586;-62
2023/08/06 04:29:47;;;;;;;6.28;3.88;;;;;;;;;;5029766;28;20313;-62
2023/08/06 04:32:14;;;;;;;4.22;3.92;;;;;;;;;;5029993;28;20196;-62
2023/08/06 04:34:40;;;;;;;4.03;3.63;;;;;;;;;;5029523;28;20204;-63
2023/08/06 04:37:07;;;;;;;3.88;3.58;;;;;;;;;;5029284;28;20207;-64
2023/08/06 04:39:33;;;;;;;3.47;3.30;;;;;;;;;;5029990;28;20693;-63
2023/08/06 04:42:00;;;;;;;3.75;3.55;;;;;;;;;;5024141;28;20262;-64
2023/08/06 04:44:26;;;;;;;3.92;3.65;;;;;;;;;;5023271;28;20207;-64
2023/08/06 04:46:54;;;;;;;4.22;3.92;;;;;;;;;;5029489;28;20286;-63
2023/08/06 04:49:21;;;;;;;4.60;3.58;;;;;;;;;;5029448;28;20223;-64
2023/08/06 04:51:48;;;;;;;4.00;3.70;;;;;;;;;;5029363;28;20289;-67
2023/08/06 04:54:14;;;;;;;3.67;3.45;;;;;;;;;;5029393;28;20208;-63
2023/08/06 04:56:40;;;;;;;3.58;3.38;;;;;;;;;;5029793;28;20200;-64
2023/08/06 04:59:07;;;;;;;3.42;3.20;;;;;;;;;;5029445;28;20705;-64
2023/08/06 05:01:33;;;;;;;3.22;3.03;;;;;;;;;;5029587;28;20235;-63
2023/08/06 05:04:01;;;;;;;2.58;2.40;;;;;;;;;;5029466;28;20266;-64
2023/08/06 05:06:28;;;;;;;3.05;2.80;;;;;;;;;;5031688;28;20365;-64
2023/08/06 05:08:54;;;;;;;4.22;2.60;;;;;;;;;;5033327;28;20274;-64
2023/08/06 05:11:20;;;;;;;3.00;2.80;;;;;;;;;;5033542;28;20258;-64
2023/08/06 05:13:47;;;;;;;2.80;2.70;;;;;;;;;;5033058;28;20199;-65
2023/08/06 05:16:13;;;;;;;3.35;3.13;;;;;;;;;;5033368;28;20203;-64
2023/08/06 05:18:40;;;;;;;3.72;3.53;;;;;;;;;;5032693;28;20243;-65
2023/08/06 05:21:08;;;;;;;4.00;3.80;;;;;;;;;;5033133;28;20261;-64
2023/08/06 05:23:35;;;;;;;3.53;3.33;;;;;;;;;;5032814;28;20250;-64
2023/08/06 05:26:01;;;;;;;3.90;3.40;;;;;;;;;;5032962;28;20215;-64
2023/08/06 05:28:28;;;;;;;5.43;4.50;;;;;;;;;;5032469;28;20669;-64
2023/08/06 05:30:54;;;;;;;5.95;5.53;;;;;;;;;;5032910;28;20720;-64
2023/08/06 05:33:20;;;;;;;7.63;7.07;;;;;;;;;;5032461;28;20535;-65
2023/08/06 05:35:47;;;;;;;8.82;6.00;;;;;;;;;;5032662;28;20234;-64
2023/08/06 05:38:15;;;;;;;8.35;7.72;;;;;;;;;;5032508;28;20289;-64
2023/08/06 05:40:41;;;;;;;6.60;6.13;;;;;;;;;;5032743;28;20285;-64
2023/08/06 05:43:07;;;;;;;6.20;5.80;;;;;;;;;;5032387;28;20763;-63
2023/08/06 05:45:34;;;;;;;5.57;5.28;;;;;;;;;;5032915;28;20243;-65
2023/08/06 05:47:59;;;;;;;5.15;4.75;;;;;;;;;;5032095;28;20204;-64
2023/08/06 05:50:26;;;;;;;3.55;3.35;;;;;;;;;;5032711;28;20231;-64
2023/08/06 05:52:52;;;;;;;3.47;3.38;;;;;;;;;;5031386;28;20220;-64
2023/08/06 05:55:21;;;;;;;3.00;2.78;;;;;;;;;;5032433;28;20231;-64
2023/08/06 05:57:47;;;;;;;3.03;2.83;;;;;;;;;;5032133;28;20212;-65
2023/08/06 06:00:14;;;;;;;2.60;2.40;;;;;;;;;;5032728;28;20212;-66
2023/08/06 06:02:40;;;;;;;2.30;2.10;;;;;;;;;;5032308;28;20223;-65
2023/08/06 06:05:07;;;;;;;2.17;2.03;;;;;;;;;;5032005;28;20242;-65
2023/08/06 06:07:33;;;;;;;1.70;1.60;;;;;;;;;;5031974;28;20206;-65
2023/08/06 06:10:00;;;;;;;1.80;1.70;;;;;;;;;;5032521;28;20288;-65
2023/08/06 06:12:28;;;;;;;1.73;1.63;;;;;;;;;;5031274;28;20218;-65
2023/08/06 06:14:54;;;;;;;1.80;1.70;;;;;;;;;;5032305;28;20203;-65
2023/08/06 06:17:21;;;;;;;3.75;1.50;;;;;;;;;;5031417;28;20191;-66
2023/08/06 06:19:47;;;;;;;1.58;1.48;;;;;;;;;;5032492;28;20232;-65
2023/08/06 06:22:14;;;;;;;2.63;1.52;;;;;;;;;;5031819;28;20218;-66
2023/08/06 06:24:41;;;;;;;1.88;1.60;;;;;;;;;;5031867;28;20211;-65
2023/08/06 06:27:07;;;;;;;1.52;1.52;;;;;;;;;;5031503;28;20196;-65
2023/08/06 06:29:35;;;;;;;1.55;1.40;;;;;;;;;;5031985;28;20255;-65
2023/08/06 06:32:02;;;;;;;2.25;1.90;;;;;;;;;;5031803;28;20294;-66
2023/08/06 06:34:28;;;;;;;1.52;1.50;;;;;;;;;;5032283;28;20199;-65
2023/08/06 06:36:54;;;;;;;1.80;1.70;;;;;;;;;;5030867;28;20204;-66
2023/08/06 06:39:21;;;;;;;1.90;1.80;;;;;;;;;;5032238;28;20235;-66
2023/08/06 06:41:48;;;;;;;1.83;1.70;;;;;;;;;;5030763;28;20772;-65
2023/08/06 06:44:14;;;;;;;2.13;2.03;;;;;;;;;;5031968;28;20628;-65
2023/08/06 06:46:42;;;;;;;3.35;1.80;;;;;;;;;;5030796;28;20214;-65
2023/08/06 06:49:09;;;;;;;3.00;1.92;;;;;;;;;;5031670;28;20204;-65
2023/08/06 06:51:35;;;;;;;2.88;1.67;;;;;;;;;;5031022;28;20582;-65
2023/08/06 06:54:01;;;;;;;2.17;2.05;;;;;;;;;;5031666;28;20230;-66
2023/08/06 06:56:28;;;;;;;4.50;1.60;;;;;;;;;;5030945;28;20630;-65
2023/08/06 06:58:55;;;;;;;1.92;1.60;;;;;;;;;;5031776;28;20215;-65
2023/08/06 07:01:21;;;;;;;2.72;2.47;;;;;;;;;;5030767;28;20692;-65
2023/08/06 07:03:49;;;;;;;2.00;1.90;;;;;;;;;;5030888;28;20267;-65
2023/08/06 07:06:18;;;;;;;1.85;1.75;;;;;;;;;;5030561;28;20203;-65
2023/08/06 07:08:44;;;;;;;1.98;1.80;;;;;;;;;;5030760;28;20204;-66
2023/08/06 07:11:11;;;;;;;1.92;1.77;;;;;;;;;;5030845;28;20937;-64
2023/08/06 07:13:37;;;;;;;1.67;1.48;;;;;;;;;;5030927;28;20231;-65
2023/08/06 07:16:04;;;;;;;1.70;1.60;;;;;;;;;;5030699;28;20200;-65
2023/08/06 07:18:30;;;;;;;8.35;2.50;;;;;;;;;;5030760;28;20235;-65
2023/08/06 07:20:58;;;;;;;9.98;2.40;;;;;;;;;;5031125;28;20685;-65
2023/08/06 07:23:25;;;;;;;2.22;2.13;;;;;;;;;;5030583;28;20225;-66
2023/08/06 07:25:52;;;;;;;2.60;2.40;;;;;;;;;;5018755;28;20619;-66
2023/08/06 07:28:19;;;;;;;2.00;1.90;;;;;;;;;;5030238;28;20234;-66
2023/08/06 07:30:45;;;;;;;1.88;1.77;;;;;;;;;;5030695;28;20791;-66
2023/08/06 07:33:12;;;;;;;2.30;2.20;;;;;;;;;;5030188;28;20203;-66
2023/08/06 07:35:39;;;;;;;3.13;2.22;;;;;;;;;;5030470;28;20696;-66
2023/08/06 07:38:06;;;;;;;2.53;2.38;;;;;;;;;;5029788;28;20309;-66
2023/08/06 07:40:33;;;;;;;2.50;2.30;;;;;;;;;;5030497;28;20706;-65
2023/08/06 07:42:59;;;;;;;2.20;2.10;;;;;;;;;;5030232;28;20211;-65
2023/08/06 07:45:26;;;;;;;2.20;1.90;;;;;;;;;;5030861;28;20200;-66
2023/08/06 07:47:53;;;;;;;2.65;2.08;;;;;;;;;;5030057;28;20203;-66
2023/08/06 07:50:19;;;;;;;2.55;1.88;;;;;;;;;;5030847;28;20278;-66
2023/08/06 07:52:46;;;;;;;2.25;2.15;;;;;;;;;;5029754;28;20223;-66
2023/08/06 07:55:14;;;;;;;2.15;2.00;;;;;;;;;;5030192;28;20650;-65
2023/08/06 07:57:40;;;;;;;2.70;2.50;;;;;;;;;;5029986;28;20216;-66
2023/08/06 08:00:07;;;;;;;2.63;2.35;;;;;;;;;;5030504;28;20292;-64
2023/08/06 08:02:33;;;;;;;2.47;2.10;;;;;;;;;;5030148;28;20204;-67
2023/08/06 08:05:00;;;;;;;2.03;1.92;;;;;;;;;;5030016;28;20235;-66
2023/08/06 08:07:28;;;;;;;2.38;2.10;;;;;;;;;;5029656;28;20207;-64
2023/08/06 08:09:55;;;;;;;2.05;1.95;;;;;;;;;;5030367;28;20265;-65
2023/08/06 08:12:22;;;;;;;1.85;1.75;;;;;;;;;;5030002;28;20208;-65
2023/08/06 08:14:49;;;;;;;2.10;2.05;;;;;;;;;;5030311;28;20204;-65
2023/08/06 08:17:15;;;;;;;1.98;1.85;;;;;;;;;;5029958;28;20203;-64
2023/08/06 08:19:42;;;;;;;3.67;2.13;;;;;;;;;;5030312;28;20656;-64
2023/08/06 08:22:08;;;;;;;2.53;1.52;;;;;;;;;;5029909;28;20204;-65
2023/08/06 08:24:35;;;;;;;2.00;1.90;;;;;;;;;;5030159;28;20216;-65
2023/08/06 08:27:01;;;;;;;1.80;1.80;;;;;;;;;;5029992;28;20277;-65
2023/08/06 08:29:29;;;;;;;2.45;2.17;;;;;;;;;;5030024;28;20692;-64
2023/08/06 08:31:55;;;;;;;2.20;2.10;;;;;;;;;;5029609;28;20223;-64
2023/08/06 08:34:22;;;;;;;2.70;2.50;;;;;;;;;;5030136;28;20208;-66
2023/08/06 08:36:49;;;;;;;2.70;2.45;;;;;;;;;;5029207;28;20223;-64
2023/08/06 08:39:16;;;;;;;1.98;1.88;;;;;;;;;;5030061;28;20291;-66
2023/08/06 08:41:43;;;;;;;1.65;1.65;;;;;;;;;;5032183;28;20204;-66
2023/08/06 08:44:10;;;;;;;1.80;1.70;;;;;;;;;;5033778;28;20234;-65
2023/08/06 08:46:39;;;;;;;2.38;2.28;;;;;;;;;;5033414;28;20199;-65
2023/08/06 08:49:06;;;;;;;1.83;1.73;;;;;;;;;;5034055;28;20291;-66
2023/08/06 08:51:33;;;;;;;2.20;2.10;;;;;;;;;;5044683;28;20736;-65
2023/08/06 08:54:00;;;;;;;2.33;2.15;;;;;;;;;;5033671;28;20238;-64
2023/08/06 08:56:26;;;;;;;2.20;2.00;;;;;;;;;;5033380;28;20274;-66
2023/08/06 08:58:55;;;;;;;2.53;2.42;;;;;;;;;;5033940;28;20265;-65
2023/08/06 09:01:22;;;;;;;2.30;2.10;;;;;;;;;;5032971;28;20226;-66
2023/08/06 09:03:51;;;;;;;2.40;2.30;;;;;;;;;;5033555;28;20243;-64
2023/08/06 09:06:18;;;;;;;2.55;2.45;;;;;;;;;;5032885;28;20203;-66
2023/08/06 09:08:48;;;;;;;2.78;2.38;;;;;;;;;;5033479;28;20231;-65
2023/08/06 09:11:15;;;;;;;4.90;2.15;;;;;;;;;;5032891;28;20223;-64
2023/08/06 09:13:41;;;;;;;2.45;2.25;;;;;;;;;;5033263;28;20309;-66
2023/08/06 09:16:08;;;;;;;2.30;2.20;;;;;;;;;;5033296;28;20289;-65
2023/08/06 09:18:34;;;;;;;1.80;1.75;;;;;;;;;;5032724;28;20690;-65
2023/08/06 09:21:02;;;;;;;2.25;2.03;;;;;;;;;;5032649;28;20638;-65
2023/08/06 09:23:30;;;;;;;2.45;2.17;;;;;;;;;;5033071;28;20211;-65
2023/08/06 09:25:57;;;;;;;3.05;2.72;;;;;;;;;;5032649;28;20701;-66
2023/08/06 09:28:24;;;;;;;1.67;1.58;;;;;;;;;;5032903;28;20207;-65
2023/08/06 09:30:50;;;;;;;2.28;2.08;;;;;;;;;;5032555;28;20223;-65
2023/08/06 09:33:18;;;;;;;2.03;1.85;;;;;;;;;;5032780;28;20638;-66
2023/08/06 09:35:46;;;;;;;2.38;2.28;;;;;;;;;;5032261;28;20227;-66
2023/08/06 09:38:14;;;;;;;2.50;2.30;;;;;;;;;;5032601;28;20208;-66
2023/08/06 09:40:41;;;;;;;2.38;2.28;;;;;;;;;;5033242;28;20196;-65
2023/08/06 09:43:07;;;;;;;2.55;2.38;;;;;;;;;;5032533;28;20290;-65
2023/08/06 09:45:35;;;;;;;2.40;2.30;;;;;;;;;;5032978;28;20277;-66
2023/08/06 09:48:03;;;;;;;2.20;2.10;;;;;;;;;;5032395;28;20200;-65
2023/08/06 09:50:31;;;;;;;2.15;1.95;;;;;;;;;;5032830;28;20297;-65
2023/08/06 09:52:58;;;;;;;3.10;1.70;;;;;;;;;;5030749;28;20306;-65
2023/08/06 09:55:26;;;;;;;2.35;2.03;;;;;;;;;;5032688;28;20207;-64
2023/08/06 09:57:53;;;;;;;2.58;2.47;;;;;;;;;;5031991;28;20261;-64
2023/08/06 10:00:19;;;;;;;2.60;2.50;;;;;;;;;;5032735;28;20640;-65
2023/08/06 10:02:46;;;;;;;4.00;2.50;;;;;;;;;;5031654;28;20211;-65
2023/08/06 10:05:13;;;;;;;3.17;1.77;;;;;;;;;;5032120;28;20749;-65
2023/08/06 10:07:40;;;;;;;1.88;1.77;;;;;;;;;;5032032;28;20273;-65
2023/08/06 10:10:07;;;;;;;2.17;1.88;;;;;;;;;;5032736;28;20236;-65
2023/08/06 10:12:35;;;;;;;2.05;1.80;;;;;;;;;;5031804;28;20219;-64
2023/08/06 10:15:04;;;;;;;1.63;1.58;;;;;;;;;;5032123;28;20659;-65
2023/08/06 10:17:32;;;;;;;2.25;2.05;;;;;;;;;;5043154;28;20234;-65
2023/08/06 10:19:59;;;;;;;2.55;2.03;;;;;;;;;;5032569;28;20269;-66
2023/08/06 10:22:27;;;;;;;1.85;1.75;;;;;;;;;;5032186;28;20196;-65
2023/08/06 10:24:54;;;;;;;2.45;2.33;;;;;;;;;;5032157;28;20212;-66
2023/08/06 10:27:21;;;;;;;2.13;1.70;;;;;;;;;;5032945;28;20230;-63
2023/08/06 10:29:49;;;;;;;2.17;2.03;;;;;;;;;;5032511;28;20286;-65
2023/08/06 10:32:18;;;;;;;2.20;2.10;;;;;;;;;;5030499;28;20684;-64
2023/08/06 10:35:01;;;;;;;7.85;2.45;;;;;;;;;;5032294;28;20234;-64
2023/08/06 10:37:36;;;;;;;2.67;2.25;;;;;;;;;;5020976;28;20744;-64
2023/08/06 10:40:02;;;;;;;2.22;2.13;;;;;;;;;;5031838;28;20294;-65
2023/08/06 10:42:29;;;;;;;2.45;1.92;;;;;;;;;;5031587;28;20196;-64
2023/08/06 10:45:15;;;;;;;2.08;1.98;;;;;;;;;;5031404;28;20297;-64
2023/08/06 10:47:42;;;;;;;3.22;2.35;;;;;;;;;;5031370;28;20269;-65
2023/08/06 10:50:16;;;;;;;2.42;2.25;;;;;;;;;;5031500;28;20196;-65
2023/08/06 10:52:43;;;;;;;2.10;2.00;;;;;;;;;;5030956;28;20613;-64
2023/08/06 10:55:10;;;;;;;6.72;2.00;;;;;;;;;;5031801;28;20204;-64
2023/08/06 10:57:36;;;;;;;2.30;2.10;;;;;;;;;;5031188;28;20278;-64
2023/08/06 11:00:05;;;;;;;2.17;2.08;;;;;;;;;;5032100;28;20206;-64
2023/08/06 11:02:34;;;;;;;3.58;1.95;;;;;;;29.84;nan;94058.41;5032298;28;20278;-64
2023/08/06 11:05:06;;;;;;;2.22;2.13;;;;;;;;;;5031161;28;20285;-64
2023/08/06 11:07:33;;;;;;;3.13;2.92;;;;;;;;;;5030917;28;20269;-63
2023/08/06 11:10:02;;;;;;;3.05;2.85;;;;;;;;;;5031883;28;20207;-64
2023/08/06 11:12:28;;;;;;;2.88;2.63;;;;;;;;;;5030438;28;20231;-64
2023/08/06 11:14:55;;;;;;;3.38;2.97;;;;;;;;;;5031461;28;20311;-65
2023/08/06 11:17:22;;;;;;;4.25;2.95;;;;;;;;;;5030394;28;20628;-65
2023/08/06 11:19:48;;;;;;;3.42;3.22;;;;;;;;;;5031158;28;20211;-65
2023/08/06 11:22:16;;;;;;;4.30;3.15;;;;;;;;;;5030749;28;20204;-65
2023/08/06 11:24:43;;;;;;;4.07;2.80;;;;;;;;;;5031057;28;20208;-65
2023/08/06 11:27:13;;;;;;;5.28;3.60;;;;;;;;;;5030245;28;20207;-65
2023/08/06 11:29:40;;;;;;;3.10;2.60;;;;;;;;;;5030414;28;20261;-65
2023/08/06 11:32:06;;;;;;;3.08;2.90;;;;;;;;;;5030762;28;20226;-66
2023/08/06 11:34:33;;;;;;;3.13;2.92;;;;;;;;;;5030695;28;20204;-65
2023/08/06 11:36:59;;;;;;;3.20;3.00;;;;;;;;;;5030136;28;20203;-64
2023/08/06 11:39:28;;;;;;;3.17;2.85;;;;;;;;;;5030884;28;20203;-65
2023/08/06 11:41:54;;;;;;;2.95;2.60;;;;;;;;;;5030136;28;20261;-66
2023/08/06 11:44:22;;;;;;;2.50;2.30;;;;;;;;;;5030798;28;20231;-65
2023/08/06 11:46:53;;;;;;;2.95;2.72;;;;;;;;;;5030404;28;20222;-65
2023/08/06 11:49:21;;;;;;;3.03;2.80;;;;;;;;;;5030463;28;20207;-64
2023/08/06 11:51:48;;;;;;;3.40;3.05;;;;;;;;;;5029522;28;20227;-65
2023/08/06 11:54:14;;;;;;;3.22;3.08;;;;;;;;;;5029730;28;20235;-66
2023/08/06 11:56:43;;;;;;;3.22;3.00;;;;;;;;;;5030302;28;20269;-64
2023/08/06 11:59:10;;;;;;;3.10;2.80;;;;;;;;;;5030447;28;20242;-64
2023/08/06 12:01:36;;;;;;;3.92;3.58;;;;;;;;;;5030124;28;20636;-64
2023/08/06 12:04:05;;;;;;;4.07;3.72;;;;;;;;;;5029915;28;20316;-65
2023/08/06 12:06:31;;;;;;;4.03;3.72;;;;;;;;;;5018233;28;20638;-65
2023/08/06 12:08:58;;;;;;;4.70;4.30;;;;;;;;;;5029786;28;20199;-64
2023/08/06 12:11:24;;;;;;;3.65;3.35;;;;;;;;;;5030233;28;20255;-64
2023/08/06 12:13:53;;;;;;;4.07;3.88;;;;;;;;;;5029866;28;20238;-65
2023/08/06 12:16:21;;;;;;;4.20;3.40;;;;;;;;;;5029910;28;20195;-65
2023/08/06 12:18:48;;;;;;;4.40;4.20;;;;;;;;;;5029981;28;20223;-65
2023/08/06 12:21:15;;;;;;;3.97;3.78;;;;;;;;;;5030613;28;20654;-65
2023/08/06 12:23:42;;;;;;;4.75;4.35;;;;;;;;;;5029839;28;20213;-65
2023/08/06 12:26:08;;;;;;;4.57;4.28;;;;;;;;;;5030344;28;20208;-65
2023/08/06 12:28:34;;;;;;;7.13;4.13;;;;;;;;;;5029988;28;20203;-65
2023/08/06 12:31:02;;;;;;;4.28;3.95;;;;;;;;;;5030128;28;20204;-66
2023/08/06 12:33:29;;;;;;;4.72;4.43;;;;;;;;;;5030034;28;20200;-65
2023/08/06 12:35:57;;;;;;;5.15;4.68;;;;;;;;;;5029795;28;20565;-65
2023/08/06 12:38:24;;;;;;;6.97;4.65;;;;;;;;;;5029746;28;20234;-65
2023/08/06 12:40:50;;;;;;;4.43;4.13;;;;;;;;;;5030399;28;20208;-65
2023/08/06 12:43:17;;;;;;;4.90;4.47;;;;;;;;;;5029459;28;20250;-65
2023/08/06 12:45:43;;;;;;;5.45;4.65;;;;;;;;;;5030093;28;20199;-65
2023/08/06 12:48:11;;;;;;;4.53;3.90;;;;;;;;;;5029415;28;20211;-63
2023/08/06 12:50:37;;;;;;;4.72;4.38;;;;;;;;;;5029817;28;20258;-64
2023/08/06 12:53:05;;;;;;;4.72;4.30;;;;;;;;;;5029199;28;20663;-64
2023/08/06 12:55:31;;;;;;;5.53;4.15;;;;;;;;;;5030033;28;20301;-64
2023/08/06 12:57:58;;;;;;;4.63;4.28;;;;;;;;;;5029225;28;20204;-65
2023/08/06 13:00:25;;;;;;;4.80;4.50;;;;;;;;;;5029884;28;20200;-66
2023/08/06 13:02:51;;;;;;;7.13;4.22;;;;;;;;;;5029512;28;20192;-63
2023/08/06 13:05:19;;;;;;;4.18;3.97;;;;;;;;;;5029534;28;20238;-64
2023/08/06 13:07:46;;;;;;;3.70;3.50;;;;;;;;;;5029231;28;20210;-64
2023/08/06 13:10:12;;;;;;;5.03;3.60;;;;;;;;;;5029706;28;20266;-65
2023/08/06 13:12:39;;;;;;;4.40;4.10;;;;;;;;;;5028815;28;20277;-64
2023/08/06 13:15:06;;;;;;;4.60;4.30;;;;;;;;;;5029791;28;20647;-63
2023/08/06 13:17:32;;;;;;;3.88;3.65;;;;;;;;;;5029128;28;20262;-64
2023/08/06 13:19:58;;;;;;;4.53;4.10;;;;;;;;;;5029759;28;20245;-63
2023/08/06 13:22:26;;;;;;;4.07;3.83;;;;;;;;;;5029024;28;20235;-65
2023/08/06 13:24:53;;;;;;;3.63;3.33;;;;;;;;;;5029225;28;20328;-65
2023/08/06 13:27:19;;;;;;;5.03;3.70;;;;;;;;;;5030853;28;20223;-65
2023/08/06 13:29:46;;;;;;;2.83;2.72;;;;;;;;;;5032976;28;20261;-65
2023/08/06 13:32:12;;;;;;;3.88;3.60;;;;;;;;;;5031803;28;20577;-64
2023/08/06 13:34:39;;;;;;;3.80;3.60;;;;;;;;;;5033455;28;20208;-64
2023/08/06 13:37:05;;;;;;;8.40;3.63;;;;;;;;;;5031938;28;20771;-64
2023/08/06 13:39:33;;;;;;;3.88;3.58;;;;;;;;;;5033305;28;20203;-65
2023/08/06 13:41:59;;;;;;;4.50;4.10;;;;;;;;;;5032183;28;20191;-64
2023/08/06 13:44:26;;;;;;;3.80;3.45;;;;;;;;;;5032890;28;20232;-65
2023/08/06 13:46:52;;;;;;;6.75;4.65;;;;;;;;;;5032020;28;20212;-64
2023/08/06 13:49:19;;;;;;;4.47;4.10;;;;;;;;;;5032687;28;20239;-65
2023/08/06 13:51:45;;;;;;;4.32;3.97;;;;;;;;;;5031984;28;20231;-64
2023/08/06 13:54:11;;;;;;;4.00;3.70;;;;;;;;;;5032428;28;20203;-65
2023/08/06 13:56:39;;;;;;;4.45;4.10;;;;;;;;;;5036615;28;20742;-66
2023/08/06 13:59:06;;;;;;;4.40;4.00;;;;;;;;;;5039065;28;20678;-64
2023/08/06 14:01:32;;;;;;;3.83;3.63;;;;;;;;;;5031803;28;20290;-65
2023/08/06 14:03:59;;;;;;;3.72;3.53;;;;;;;;;;5032349;28;20242;-64
2023/08/06 14:06:25;;;;;;;3.58;3.25;;;;;;;;;;5031912;28;20203;-64
2023/08/06 14:08:52;;;;;;;3.75;3.42;;;;;;;;;;5032496;28;20204;-65
2023/08/06 14:11:18;;;;;;;3.38;3.17;;;;;;;;;;5032126;28;20199;-65
2023/08/06 14:13:46;;;;;;;5.47;3.60;;;;;;;;;;5032095;28;20231;-65
2023/08/06 14:16:12;;;;;;;3.92;3.67;;;;;;;;;;5032446;28;20208;-65
2023/08/06 14:18:41;;;;;;;3.20;3.00;;;;;;;;;;5031915;28;20227;-64
2023/08/06 14:21:08;;;;;;;4.05;3.78;;;;;;;28.26;nan;93995.88;5032656;28;20204;-65
2023/08/06 14:23:34;;;;;;;3.20;3.00;;;;;;;;;;5031638;28;20208;-64
2023/08/06 14:26:01;;;;;;;3.40;3.20;;;;;;;;;;5031912;28;20219;-65
2023/08/06 14:28:27;;;;;;;3.47;3.28;;;;;;;;;;5031985;28;20207;-64
2023/08/06 14:30:55;;;;;;;2.90;2.70;;;;;;;;;;5032305;28;20208;-65
2023/08/06 14:33:22;;;;;;;4.05;3.80;;;;;;;;;;5031345;28;20704;-65
2023/08/06 14:35:48;;;;;;;4.40;3.15;;;;;;;;;;5031854;28;20208;-66
2023/08/06 14:38:15;;;;;;;3.47;3.28;;;;;;;;;;5030389;28;20585;-64
2023/08/06 14:40:41;;;;;;;4.97;3.55;;;;;;;;;;5032086;28;20208;-65